Time;durP1;ratioP1;P1;durP2;ratioP2;P2;SDS_P1;SDS_P2;PMS_P1;PMS_P2;Temp;Humidity;BMP_temperature;BMP_pressure;BME280_temperature;BME280_humidity;BME280_pressure;Samples;Min_cycle;Max_cycle;Signal;HPM_P1;HPM_P2
2022/11/19 00:01:15;;;;;;;19.40;7.75;;;;;;;6.87;79.90;96932.59;4466528;32;20069;-78
2022/11/19 00:03:43;;;;;;;18.02;7.72;;;;;;;7.37;77.88;96934.56;4466702;32;20061;-78
2022/11/19 00:06:22;;;;;;;21.17;7.72;;;;;;;7.17;78.42;96927.78;4467119;32;20062;-78
2022/11/19 00:08:50;;;;;;;17.70;7.90;;;;;;;7.94;75.03;96933.44;4467557;32;20452;-79
2022/11/19 00:14:09;;;;;;;17.27;7.57;;;;;;;7.35;75.96;96938.94;4466733;32;20096;-79
2022/11/19 00:16:36;;;;;;;18.67;8.48;;;;;;;7.33;75.90;96940.72;4467308;32;20057;-78
2022/11/19 00:19:04;;;;;;;20.08;8.85;;;;;;;7.03;75.86;96935.31;4451860;32;20076;-79
2022/11/19 00:21:31;;;;;;;21.67;9.05;;;;;;;6.95;77.33;96941.62;4467002;32;20069;-78
2022/11/19 00:23:58;;;;;;;;;;;;;;;7.67;73.74;96935.66;4466417;32;20061;-79
2022/11/19 00:26:25;;;;;;;21.30;8.48;;;;;;;7.79;72.80;96939.34;4466591;32;19945;-78
2022/11/19 00:28:52;;;;;;;22.42;8.13;;;;;;;7.31;74.47;96953.63;4465567;32;20150;-79
2022/11/19 00:31:19;;;;;;;19.55;8.20;;;;;;;7.07;75.67;96963.31;4452564;32;20161;-78
2022/11/19 00:33:45;;;;;;;;;;;;;;;7.18;75.00;96973.91;4466952;32;20072;-78
2022/11/19 00:36:14;;;;;;;21.87;9.15;;;;;;;7.01;75.15;96983.25;4466709;32;19944;-78
2022/11/19 00:38:41;;;;;;;23.55;9.20;;;;;;;6.85;76.26;96994.22;4466057;32;20137;-78
2022/11/19 00:41:09;;;;;;;18.62;8.63;;;;;;;6.51;78.75;96996.59;4466945;32;20083;-78
2022/11/19 00:43:48;;;;;;;22.45;8.88;;;;;;;6.78;78.39;97000.50;4466713;32;20080;-78
2022/11/19 00:46:19;;;;;;;22.05;8.57;;;;;;;7.08;76.34;97010.28;4466793;32;20053;-78
2022/11/19 00:48:53;;;;;;;21.58;8.90;;;;;;;7.43;74.30;97024.06;4466864;32;20053;-78
2022/11/19 00:51:21;;;;;;;20.83;8.38;;;;;;;7.67;71.73;97028.06;4452827;32;20122;-78
2022/11/19 00:53:48;;;;;;;24.73;9.88;;;;;;;7.73;71.73;97040.59;4466406;32;20104;-78
2022/11/19 00:56:18;;;;;;;22.83;9.35;;;;;;;7.65;71.67;97041.88;4466447;32;20081;-78
2022/11/19 00:58:50;;;;;;;24.75;9.60;;;;;;;7.10;74.38;97041.84;4466460;32;20056;-78
2022/11/19 01:01:18;;;;;;;25.80;10.15;;;;;;;6.90;75.46;97048.69;4466373;32;20073;-79
2022/11/19 01:03:46;;;;;;;25.42;10.10;;;;;;;6.65;77.44;97042.97;4466635;32;20065;-79
2022/11/19 01:06:15;;;;;;;27.23;11.32;;;;;;;6.40;78.16;97056.00;4465659;32;20061;-79
2022/11/19 01:08:46;;;;;;;26.05;11.02;;;;;;;6.71;77.41;97049.56;4466155;32;20109;-78
2022/11/19 01:11:24;;;;;;;26.70;10.93;;;;;;;6.78;76.85;97051.78;4465400;32;20057;-78
2022/11/19 01:13:52;;;;;;;25.15;10.27;;;;;;;6.50;78.30;97059.00;4464892;32;20072;-78
2022/11/19 01:16:22;;;;;;;26.08;10.43;;;;;;;6.04;81.35;97066.81;4464492;32;20057;-78
2022/11/19 01:18:50;;;;;;;26.02;9.75;;;;;;;6.50;79.21;97064.13;4465121;32;20061;-79
2022/11/19 01:21:19;;;;;;;29.40;10.40;;;;;;;6.82;77.29;97065.31;4464347;32;20073;-78
2022/11/19 01:23:47;;;;;;;25.88;9.68;;;;;;;6.81;77.27;97071.34;4465461;32;20110;-78
2022/11/19 01:26:14;;;;;;;27.83;10.48;;;;;;;7.00;75.58;97073.91;4465984;32;20057;-78
2022/11/19 01:28:44;;;;;;;26.12;10.18;;;;;;;6.45;78.06;97073.72;4465225;32;20057;-79
2022/11/19 01:31:20;;;;;;;30.42;11.35;;;;;;;6.40;77.67;97079.06;4468016;32;20065;-78
2022/11/19 01:33:47;;;;;;;26.40;10.75;;;;;;;6.52;77.15;97085.38;4465179;32;20058;-78
2022/11/19 01:36:25;;;;;;;26.25;10.88;;;;;;;6.27;78.17;97090.69;4449876;32;20061;-78
2022/11/19 01:38:53;;;;;;;29.33;11.90;;;;;;;7.15;74.04;97093.78;4463984;32;20069;-78
2022/11/19 01:41:23;;;;;;;25.80;10.32;;;;;;;7.06;74.02;97096.75;4437476;32;20177;-79
2022/11/19 01:43:57;;;;;;;28.70;11.35;;;;;;;7.06;73.64;97102.72;4465999;32;20127;-78
2022/11/19 01:46:30;;;;;;;27.62;10.90;;;;;;;7.99;70.76;97107.91;4466854;32;20101;-78
2022/11/19 01:49:02;;;;;;;27.83;11.50;;;;;;;8.54;68.18;97113.81;4467028;32;20053;-79
2022/11/19 01:51:36;;;;;;;29.65;11.43;;;;;;;8.38;67.46;97131.69;4453919;32;20078;-79
2022/11/19 01:54:10;;;;;;;29.70;11.93;;;;;;;9.14;63.33;97129.59;4467354;32;20834;-78
2022/11/19 01:56:37;;;;;;;25.77;11.35;;;;;;;8.96;63.63;97136.53;4453552;32;20110;-79
2022/11/19 01:59:08;;;;;;;28.08;11.30;;;;;;;8.43;65.75;97140.94;4453414;32;20077;-79
2022/11/19 02:01:35;;;;;;;27.00;11.05;;;;;;;7.56;70.37;97132.16;4466475;32;20096;-79
2022/11/19 02:04:03;;;;;;;28.95;11.50;;;;;;;7.91;69.86;97135.69;4466612;32;20097;-78
2022/11/19 02:06:31;;;;;;;25.15;11.27;;;;;;;7.07;73.26;97131.75;4467462;32;20061;-79
2022/11/19 02:08:58;;;;;;;30.92;11.45;;;;;;;8.81;67.16;97129.59;4465596;32;20149;-79
2022/11/19 02:11:25;;;;;;;29.70;11.85;;;;;;;6.13;78.23;97118.59;4467047;32;20110;-79
2022/11/19 02:14:11;;;;;;;;;;;;;;;8.56;67.51;97129.97;4467342;32;20154;-79
2022/11/19 02:17:07;;;;;;;27.83;10.93;;;;;;;8.89;65.59;97135.19;4465506;32;19953;-79
2022/11/19 02:20:19;;;;;;;29.42;12.05;;;;;;;8.82;65.80;97133.00;4466450;32;20110;-78
2022/11/19 02:23:17;;;;;;;32.15;12.57;;;;;;;8.23;67.82;97150.41;4466592;32;20062;-78
2022/11/19 02:26:12;;;;;;;28.70;12.15;;;;;;;8.43;67.89;97151.22;4466908;32;20102;-79
2022/11/19 02:29:06;;;;;;;31.55;12.18;;;;;;;8.19;68.43;97155.75;4465526;32;20061;-79
2022/11/19 02:31:39;;;;;;;29.83;12.18;;;;;;;8.08;70.89;97153.69;4465678;32;20080;-79
2022/11/19 02:34:15;;;;;;;31.25;12.80;;;;;;;9.48;64.30;97146.72;4465278;32;20073;-79
2022/11/19 02:36:51;;;;;;;28.42;11.18;;;;;;;8.83;67.07;97139.81;4452427;32;20123;-79
2022/11/19 02:39:29;;;;;;;30.48;12.77;;;;;;;8.47;67.78;97143.28;4466133;32;20113;-79
2022/11/19 02:42:03;;;;;;;32.63;12.75;;;;;;;8.33;68.15;97138.78;4465485;32;20057;-79
2022/11/19 02:47:32;;;;;;;32.08;13.32;;;;;;;8.98;66.77;97137.28;4466199;32;20159;-79
2022/11/19 02:50:04;;;;;;;32.20;13.20;;;;;;;9.22;65.67;97135.19;4466282;32;20076;-79
2022/11/19 02:52:31;;;;;;;33.47;13.52;;;;;;;9.17;65.34;97142.34;4452365;32;20080;-79
2022/11/19 02:54:57;;;;;;;31.83;12.55;;;;;;;9.38;64.04;97144.72;4452016;32;20079;-79
2022/11/19 02:57:24;;;;;;;31.58;13.10;;;;;;;8.92;65.25;97144.47;4465721;32;20066;-79
2022/11/19 03:05:35;;;;;;;28.48;10.80;;;;;;;8.67;64.94;97162.88;4464855;32;20096;-79
2022/11/19 03:08:02;;;;;;;26.67;12.15;;;;;;;7.68;70.54;97154.72;4464049;32;20065;-79
2022/11/19 03:10:40;;;;;;;29.50;11.95;;;;;;;8.35;68.17;97161.88;4464665;32;20819;-79
2022/11/19 03:19:00;;;;;;;;;;;;;;;8.40;66.50;97168.47;4454428;32;20065;-79
2022/11/19 03:21:34;;;;;;;32.20;12.35;;;;;;;8.40;64.91;97176.19;4451881;32;19945;-79
2022/11/19 03:24:06;;;;;;;29.08;12.25;;;;;;;8.04;67.17;97181.25;4452435;32;20057;-79
2022/11/19 03:26:36;;;;;;;28.10;11.57;;;;;;;6.78;74.62;97181.69;4451943;32;20069;-79
2022/11/19 03:29:07;;;;;;;31.83;11.85;;;;;;;7.65;69.27;97181.34;4466642;32;20088;-79
2022/11/19 03:31:35;;;;;;;31.65;12.88;;;;;;;8.29;67.09;97188.66;4466845;32;20076;-79
2022/11/19 03:34:08;;;;;;;34.80;12.70;;;;;;;8.30;66.25;97185.22;4467103;32;20103;-79
2022/11/19 03:36:38;;;;;;;31.55;13.30;;;;;;;8.45;65.52;97191.38;4467090;32;20110;-79
2022/11/19 03:39:09;;;;;;;31.27;12.77;;;;;;;8.80;63.82;97204.25;4452612;32;20096;-79
2022/11/19 03:41:38;;;;;;;28.98;12.35;;;;;;;8.95;62.93;97204.34;4466006;32;20085;-79
2022/11/19 03:44:11;;;;;;;28.67;11.80;;;;;;;9.16;62.79;97210.16;4452530;32;20058;-79
2022/11/19 03:46:39;;;;;;;31.92;13.45;;;;;;;9.16;62.67;97219.63;4452457;32;20084;-79
2022/11/19 03:49:06;;;;;;;33.25;13.20;;;;;;;8.84;63.38;97226.37;4450981;32;20073;-78
2022/11/19 03:52:12;;;;;;;30.48;13.02;;;;;;;8.40;64.73;97234.47;4451411;32;20090;-79
2022/11/19 03:54:40;;;;;;;31.15;12.93;;;;;;;8.52;64.92;97240.78;4448824;32;20076;-79
2022/11/19 03:57:09;;;;;;;34.88;13.68;;;;;;;8.19;66.51;97249.13;4465278;32;20186;-79
2022/11/19 03:59:37;;;;;;;28.87;12.27;;;;;;;8.06;67.30;97255.69;4464058;32;20774;-79
2022/11/19 04:02:06;;;;;;;30.00;12.20;;;;;;;8.31;66.05;97258.84;4450952;32;20104;-78
2022/11/19 04:04:37;;;;;;;32.83;13.25;;;;;;;8.15;66.85;97259.59;4464667;32;20057;-78
2022/11/19 04:07:15;;;;;;;32.10;13.15;;;;;;;8.23;66.91;97260.09;4464256;32;20111;-79
2022/11/19 04:09:43;;;;;;;33.75;13.20;;;;;;;8.10;67.30;97258.06;4463897;32;20062;-79
2022/11/19 04:12:21;;;;;;;33.42;13.77;;;;;;;8.15;67.80;97270.69;4450012;32;20100;-79
2022/11/19 04:14:48;;;;;;;33.30;13.05;;;;;;;8.19;67.62;97268.81;4464124;32;20053;-79
2022/11/19 04:17:16;;;;;;;32.88;14.10;;;;;;;8.14;68.13;97274.19;4464692;32;20057;-79
2022/11/19 04:19:44;;;;;;;35.60;13.60;;;;;;;8.08;67.69;97282.16;4463812;32;20791;-78
2022/11/19 04:22:11;;;;;;;33.58;13.48;;;;;;;7.75;69.07;97290.44;4450214;32;20089;-79
2022/11/19 04:24:38;;;;;;;35.35;14.13;;;;;;;8.03;67.52;97287.50;4464624;32;20118;-79
2022/11/19 04:27:04;;;;;;;;;;;;;;;7.52;69.77;97288.03;4464806;32;20093;-78
2022/11/19 04:29:34;;;;;;;34.55;12.80;;;;;;;7.42;70.70;97294.44;4463930;32;20304;-78
2022/11/19 04:32:01;;;;;;;33.17;13.48;;;;;;;7.42;70.68;97302.16;4462976;32;20089;-79
2022/11/19 04:34:28;;;;;;;34.60;13.62;;;;;;;7.13;71.68;97303.37;4463545;32;20081;-78
2022/11/19 04:36:55;;;;;;;32.50;13.82;;;;;;;7.53;70.14;97312.81;4464043;32;20447;-79
2022/11/19 04:39:22;;;;;;;;;;;;;;;7.45;70.43;97312.31;4463377;32;20512;-79
2022/11/19 04:41:49;;;;;;;33.45;13.57;;;;;;;7.34;71.34;97319.63;4448850;32;19995;-79
2022/11/19 04:44:16;;;;;;;35.17;13.75;;;;;;;7.65;69.18;97324.28;4463448;32;20158;-78
2022/11/19 04:46:42;;;;;;;35.03;14.10;;;;;;;8.31;66.06;97330.78;4450196;32;20495;-78
2022/11/19 04:49:09;;;;;;;37.17;14.77;;;;;;;7.93;66.39;97334.22;4464188;32;20153;-78
2022/11/19 04:51:36;;;;;;;36.95;14.55;;;;;;;7.20;69.68;97336.41;4463184;32;20079;-78
2022/11/19 04:54:03;;;;;;;39.00;16.35;;;;;;;7.22;69.63;97333.75;4462388;32;20431;-79
2022/11/19 04:56:30;;;;;;;41.50;15.95;;;;;;;7.38;69.38;97328.84;4462977;32;20072;-78
2022/11/19 04:58:58;;;;;;;;;;;;;;;7.50;68.70;97329.16;4462925;32;20076;-78
2022/11/19 05:01:25;;;;;;;36.58;14.45;;;;;;;7.44;69.33;97334.56;4463181;32;19949;-79
2022/11/19 05:03:52;;;;;;;43.75;16.33;;;;;;;8.03;66.49;97349.16;4461278;32;20065;-79
2022/11/19 05:06:19;;;;;;;;;;;;;;;8.22;66.26;97359.47;4462095;32;20097;-79
2022/11/19 05:08:45;;;;;;;36.70;14.87;;;;;;;8.59;64.54;97361.25;4462809;32;19944;-79
2022/11/19 05:11:12;;;;;;;;;;;;;;;8.48;64.26;97367.78;4461837;32;20089;-79
2022/11/19 05:13:39;;;;;;;39.90;15.05;;;;;;;8.81;63.96;97367.97;4462002;32;19968;-79
2022/11/19 05:16:06;;;;;;;;;;;;;;;8.37;65.03;97379.37;4462066;32;20111;-79
2022/11/19 05:18:33;;;;;;;36.60;14.63;;;;;;;8.77;63.83;97374.16;4461199;32;19995;-79
2022/11/19 05:20:59;;;;;;;35.58;13.85;;;;;;;8.29;65.09;97378.84;4462011;32;20069;-79
2022/11/19 05:23:26;;;;;;;42.10;16.02;;;;;;;7.55;67.20;97370.06;4462935;32;20408;-79
2022/11/19 05:25:53;;;;;;;35.53;15.65;;;;;;;8.66;64.63;97372.94;4462281;32;20097;-79
2022/11/19 05:28:20;;;;;;;38.53;14.85;;;;;;;7.74;67.01;97372.69;4462827;32;20154;-79
2022/11/19 05:31:04;;;;;;;39.22;15.25;;;;;;;9.95;57.89;97384.75;4462699;32;20061;-79
2022/11/19 05:33:30;;;;;;;37.78;14.35;;;;;;;9.46;59.41;97402.63;4461915;32;20145;-79
2022/11/19 05:36:00;;;;;;;44.33;14.87;;;;;;;8.88;61.75;97401.06;4463358;32;20061;-79
2022/11/19 05:38:28;;;;;;;37.67;16.20;;;;;;;8.73;62.26;97409.50;4463415;32;20072;-79
2022/11/19 05:40:54;;;;;;;38.20;16.17;;;;;;;9.77;59.18;97425.97;4462776;32;20124;-79
2022/11/19 05:43:21;;;;;;;37.63;15.00;;;;;;;10.05;57.54;97429.75;4463137;32;20079;-79
2022/11/19 05:45:48;;;;;;;40.33;16.85;;;;;;;9.27;59.40;97431.00;4463386;32;20072;-79
2022/11/19 05:48:15;;;;;;;38.65;15.93;;;;;;;9.90;58.15;97430.53;4462655;32;20049;-79
2022/11/19 05:50:42;;;;;;;;;;;;;;;9.97;57.35;97442.19;4462632;32;20076;-79
2022/11/19 05:53:09;;;;;;;43.80;16.90;;;;;;;7.68;65.27;97434.59;4461747;32;19969;-79
2022/11/19 05:55:36;;;;;;;43.00;16.98;;;;;;;7.73;65.69;97448.88;4462184;32;20103;-79
2022/11/19 05:58:03;;;;;;;41.28;16.67;;;;;;;9.00;61.15;97445.97;4462740;32;20053;-79
2022/11/19 06:00:30;;;;;;;43.28;17.58;;;;;;;9.52;59.70;97457.25;4462228;32;20114;-79
2022/11/19 06:02:56;;;;;;;39.00;16.42;;;;;;;9.61;59.31;97452.56;4462338;32;20077;-79
2022/11/19 06:05:23;;;;;;;39.35;16.50;;;;;;;10.12;55.94;97447.44;4462745;32;20096;-79
2022/11/19 06:07:50;;;;;;;41.45;16.55;;;;;;;9.59;58.15;97439.78;4461446;32;20085;-79
2022/11/19 06:10:18;;;;;;;34.28;13.98;;;;;;;9.19;59.84;97446.81;4460988;32;20098;-79
2022/11/19 06:12:45;;;;;;;41.42;15.50;;;;;;;9.13;59.70;97452.22;4459865;32;20138;-79
2022/11/19 06:15:13;;;;;;;42.55;15.73;;;;;;;7.18;68.79;97461.34;4459426;32;20140;-79
2022/11/19 06:17:40;;;;;;;40.92;15.98;;;;;;;5.75;75.38;97467.28;4461556;32;20146;-79
2022/11/19 06:20:09;;;;;;;33.00;13.40;;;;;;;4.23;84.13;97466.69;4461970;32;20096;-78
2022/11/19 06:22:37;;;;;;;41.00;16.77;;;;;;;4.54;83.77;97470.09;4448027;32;20084;-79
2022/11/19 06:25:04;;;;;;;38.38;15.45;;;;;;;5.22;79.11;97466.44;4461559;32;20104;-79
2022/11/19 06:27:31;;;;;;;35.30;14.43;;;;;;;4.88;79.77;97471.69;4461371;32;20113;-79
2022/11/19 06:29:59;;;;;;;;;;;;;;;5.70;77.14;97466.59;4461141;32;20065;-79
2022/11/19 06:32:26;;;;;;;28.30;11.25;;;;;;;5.36;78.27;97471.94;4461635;32;19965;-78
2022/11/19 06:34:53;;;;;;;43.35;15.68;;;;;;;4.39;80.85;97469.69;4460781;32;20077;-78
2022/11/19 06:37:20;;;;;;;;;;;;;;;4.46;83.17;97479.69;4461394;32;20131;-78
2022/11/19 06:39:46;;;;;;;39.17;14.18;;;;;;;5.23;79.87;97475.75;4461318;32;19987;-79
2022/11/19 06:44:59;;;;;;;41.67;16.02;;;;;;;4.72;80.93;97478.97;4460442;32;20098;-78
2022/11/19 06:47:25;;;;;;;;;;;;;;;4.64;80.98;97481.72;4461415;32;20423;-78
2022/11/19 06:49:52;;;;;;;39.00;16.35;;;;;;;4.97;79.67;97488.47;4460135;32;19987;-79
2022/11/19 06:52:19;;;;;;;39.30;15.45;;;;;;;5.37;78.98;97483.84;4460628;32;20141;-79
2022/11/19 06:54:46;;;;;;;36.53;15.05;;;;;;;5.95;75.94;97492.22;4460612;32;20674;-79
2022/11/19 06:57:13;;;;;;;34.55;14.68;;;;;;;5.84;74.45;97494.28;4460278;32;20158;-79
2022/11/19 06:59:40;;;;;;;;;;;;;;;6.04;74.42;97494.50;4460632;32;20103;-78
2022/11/19 07:02:10;;;;;;;39.63;15.60;;;;;;;6.58;71.75;97500.34;4460466;32;19948;-78
2022/11/19 07:04:37;;;;;;;33.45;14.15;;;;;;;7.05;70.09;97508.06;4459033;32;20104;-79
2022/11/19 07:07:04;;;;;;;35.13;14.43;;;;;;;7.95;66.16;97517.34;4459939;32;20105;-79
2022/11/19 07:09:31;;;;;;;36.30;15.00;;;;;;;8.34;65.13;97536.31;4460117;32;20089;-79
2022/11/19 07:11:58;;;;;;;35.10;14.70;;;;;;;8.60;63.59;97540.34;4458952;32;20104;-79
2022/11/19 07:14:24;;;;;;;;;;;;;;;9.25;61.07;97544.34;4459765;32;20089;-79
2022/11/19 07:16:51;;;;;;;34.30;14.30;;;;;;;10.04;56.32;97538.94;4459176;32;19973;-79
2022/11/19 07:19:18;;;;;;;38.03;15.18;;;;;;;10.14;55.77;97540.97;4458384;32;20093;-79
2022/11/19 07:21:45;;;;;;;38.42;15.95;;;;;;;10.11;55.16;97540.31;4459188;32;20508;-79
2022/11/19 07:24:15;;;;;;;36.28;15.48;;;;;;;10.09;55.01;97539.53;4459047;32;20093;-79
2022/11/19 07:26:43;;;;;;;39.25;15.93;;;;;;;9.88;55.68;97538.81;4457293;32;20081;-79
2022/11/19 07:29:12;;;;;;;37.20;15.98;;;;;;;10.63;53.94;97554.06;4458967;32;20092;-79
2022/11/19 07:31:39;;;;;;;36.03;14.95;;;;;;;10.14;54.61;97559.03;4458790;32;20108;-79
2022/11/19 07:34:07;;;;;;;34.83;15.18;;;;;;;10.13;55.50;97552.19;4444653;32;20097;-79
2022/11/19 07:36:35;;;;;;;37.38;15.90;;;;;;;10.84;53.51;97553.84;4458624;32;20107;-79
2022/11/19 07:39:03;;;;;;;40.85;15.98;;;;;;;10.72;52.98;97556.13;4458411;32;20105;-79
2022/11/19 07:44:16;;;;;;;34.50;14.07;;;;;;;10.64;53.07;97570.37;4459270;32;20113;-79
2022/11/19 07:46:43;;;;;;;37.55;16.50;;;;;;;10.61;52.76;97579.06;4459023;32;20360;-79
2022/11/19 07:49:10;;;;;;;34.50;14.38;;;;;;;10.40;53.60;97580.13;4459658;32;20383;-79
2022/11/19 07:51:37;;;;;;;36.45;15.07;;;;;;;9.87;56.22;97570.66;4459416;32;20108;-79
2022/11/19 07:54:04;;;;;;;35.08;15.95;;;;;;;10.11;54.76;97576.41;4458846;32;20108;-79
2022/11/19 07:56:31;;;;;;;35.13;15.45;;;;;;;10.33;54.01;97573.62;4459079;32;20096;-79
2022/11/19 07:59:00;;;;;;;34.85;14.85;;;;;;;10.21;55.47;97572.47;4458999;32;20056;-79
2022/11/19 08:01:27;;;;;;;36.88;15.30;;;;;;;10.30;54.64;97574.59;4458962;32;20380;-79
2022/11/19 08:03:54;;;;;;;32.78;14.87;;;;;;;9.32;57.76;97580.94;4459248;32;20053;-79
2022/11/19 08:06:24;;;;;;;33.88;14.70;;;;;;;9.93;56.23;97577.25;4445766;32;20073;-79
2022/11/19 08:08:52;;;;;;;38.60;15.15;;;;;;;9.33;58.61;97585.16;4459360;32;20084;-79
2022/11/19 08:11:19;;;;;;;35.35;14.90;;;;;;;9.29;59.03;97591.38;4458942;32;20073;-78
2022/11/19 08:13:46;;;;;;;;;;;;;;;8.64;61.99;97601.06;4459723;32;20068;-79
2022/11/19 08:19:11;;;;;;;38.60;15.63;;;;;;;8.95;63.30;97592.87;4458701;32;20118;-79
2022/11/19 08:21:40;;;;;;;40.50;15.90;;;;;;;8.98;62.83;97597.03;4457819;32;20112;-79
2022/11/19 08:24:08;;;;;;;38.33;16.27;;;;;;;9.29;62.00;97591.38;4456674;32;20101;-79
2022/11/19 08:26:36;;;;;;;41.80;17.08;;;;;;;9.52;61.04;97598.06;4457911;32;20084;-79
2022/11/19 08:29:04;;;;;;;38.50;16.30;;;;;;;9.72;60.34;97595.41;4457233;32;20093;-79
2022/11/19 08:31:31;;;;;;;39.75;15.85;;;;;;;9.60;60.69;97606.28;4457696;32;20073;-78
2022/11/19 08:34:00;;;;;;;37.50;15.05;;;;;;;9.83;60.11;97600.06;4458371;32;20165;-79
2022/11/19 08:36:27;;;;;;;38.60;15.18;;;;;;;9.63;59.78;97606.13;4458318;32;20104;-79
2022/11/19 08:38:59;;;;;;;36.08;15.40;;;;;;;9.43;61.64;97594.16;4457529;32;20151;-79
2022/11/19 08:44:12;;;;;;;35.45;15.00;;;;;;;9.22;62.83;97611.38;4458054;32;20057;-79
2022/11/19 08:46:40;;;;;;;36.45;14.35;;;;;;;9.64;60.17;97622.41;4458341;32;20065;-79
2022/11/19 08:49:07;;;;;;;36.17;15.00;;;;;;;9.51;60.89;97617.81;4458008;32;20092;-79
2022/11/19 08:51:34;;;;;;;36.53;14.75;;;;;;;9.79;60.93;97619.97;4458484;32;20080;-79
2022/11/19 08:54:01;;;;;;;38.25;15.55;;;;;;;9.54;61.29;97624.56;4458928;32;20061;-79
2022/11/19 08:56:28;;;;;;;34.28;13.98;;;;;;;9.48;61.55;97633.41;4449732;32;278427;-79
2022/11/19 08:58:55;;;;;;;35.55;14.35;;;;;;;9.43;61.03;97630.19;4458273;32;20131;-79
2022/11/19 09:01:28;;;;;;;32.78;14.50;;;;;;;9.52;62.29;97627.22;4458141;32;20107;-79
2022/11/19 09:03:55;;;;;;;35.15;14.80;;;;;;;9.76;60.31;97635.56;4457727;32;20089;-79
2022/11/19 09:06:22;;;;;;;;;;;;;;;9.21;62.23;97640.63;4457884;32;20090;-79
2022/11/19 09:08:49;;;;;;;32.23;13.30;;;;;;;9.68;61.54;97647.97;4457488;32;19991;-79
2022/11/19 09:11:17;;;;;;;33.25;13.98;;;;;;;10.60;58.08;97647.06;4456636;32;20073;-79
2022/11/19 09:13:44;;;;;;;28.45;12.35;;;;;;;10.19;58.38;97648.19;4457421;32;20090;-79
2022/11/19 09:16:12;;;;;;;30.83;12.80;;;;;;;10.95;55.41;97649.62;4457458;32;20100;-79
2022/11/19 09:18:40;;;;;;;30.98;12.50;;;;;;;11.29;53.74;97657.34;4456990;32;20089;-79
2022/11/19 09:21:09;;;;;;;30.85;12.82;;;;;;;11.38;53.79;97655.16;4457018;32;20158;-79
2022/11/19 09:23:36;;;;;;;28.87;12.73;;;;;;;10.80;55.39;97647.81;4457060;32;20154;-79
2022/11/19 09:26:08;;;;;;;27.00;11.75;;;;;;;11.25;53.99;97650.62;4442709;32;20101;-79
2022/11/19 09:28:35;;;;;;;28.25;13.05;;;;;;;11.74;51.39;97645.50;4456649;32;20081;-79
2022/11/19 09:31:11;;;;;;;27.92;12.23;;;;;;;11.57;52.68;97650.72;4456203;32;20447;-79
2022/11/19 09:33:41;;;;;;;29.48;12.20;;;;;;;10.09;57.74;97645.22;4456662;32;20111;-79
2022/11/19 09:36:09;;;;;;;30.33;13.13;;;;;;;10.18;57.33;97654.25;4456620;32;20097;-79
2022/11/19 09:38:36;;;;;;;32.72;14.87;;;;;;;9.82;59.62;97649.91;4441878;32;20092;-79
2022/11/19 09:41:21;;;;;;;30.73;13.27;;;;;;;9.20;60.70;97644.09;4456071;32;20081;-79
2022/11/19 09:43:54;;;;;;;35.65;13.95;;;;;;;9.98;59.39;97647.44;4456011;32;20098;-79
2022/11/19 09:46:37;;;;;;;42.58;16.40;;;;;;;9.41;61.95;97649.22;4455725;32;20092;-79
2022/11/19 09:49:09;;;;;;;39.05;16.77;;;;;;;9.76;60.88;97645.03;4442418;32;20088;-79
2022/11/19 09:51:38;;;;;;;36.45;15.88;;;;;;;9.29;62.53;97640.28;4457996;32;20077;-79
2022/11/19 09:54:07;;;;;;;44.70;17.60;;;;;;;8.00;67.62;97643.91;4458016;32;20097;-79
2022/11/19 09:56:36;;;;;;;38.33;16.33;;;;;;;8.59;66.81;97646.69;4458223;32;20089;-79
2022/11/19 09:59:15;;;;;;;33.70;15.13;;;;;;;9.27;63.62;97640.34;4457423;32;20093;-79
2022/11/19 10:01:42;;;;;;;32.63;13.88;;;;;;;9.05;63.73;97638.78;4443780;32;20123;-79
2022/11/19 10:04:09;;;;;;;;;;;;;;;9.10;63.45;97640.25;4458114;32;20109;-79
2022/11/19 10:07:10;;;;;;;38.75;16.10;;;;;;;10.15;59.03;97639.78;4457749;32;20345;-79
2022/11/19 10:09:59;;;;;;;35.13;14.80;;;;;;;10.02;58.48;97636.94;4458104;32;20084;-79
2022/11/19 10:12:26;;;;;;;33.78;14.77;;;;;;;8.80;61.92;97632.09;4457532;32;20073;-79
2022/11/19 10:14:59;;;;;;;;;;;;;;;8.96;62.29;97620.25;4458172;32;20097;-79
2022/11/19 10:17:53;;;;;;;35.03;15.05;;;;;;;8.67;62.28;97616.34;4458181;32;19976;-79
2022/11/19 10:20:26;;;;;;;35.67;14.73;;;;;;;9.77;60.39;97626.94;4457391;32;20089;-79
2022/11/19 10:22:59;;;;;;;34.80;15.00;;;;;;;10.94;55.96;97630.72;4457512;32;20057;-79
2022/11/19 10:25:31;;;;;;;34.03;14.40;;;;;;;10.91;55.34;97633.47;4457256;32;20093;-79
2022/11/19 10:28:18;;;;;;;34.05;14.80;;;;;;;10.46;55.71;97636.59;4442922;32;20088;-79
2022/11/19 10:30:54;;;;;;;32.13;13.85;;;;;;;11.74;51.63;97655.00;4456831;32;20088;-80
2022/11/19 10:33:34;;;;;;;31.90;13.57;;;;;;;10.45;55.26;97639.25;4443251;32;20058;-80
2022/11/19 10:36:07;;;;;;;30.20;13.13;;;;;;;11.80;52.01;97645.19;4456967;32;20101;-79
2022/11/19 10:38:55;;;;;;;27.67;10.82;;;;;;;10.53;55.16;97645.72;4457048;32;20111;-79
2022/11/19 10:41:32;;;;;;;26.17;11.73;;;;;;;10.60;55.53;97641.91;4456596;32;20570;-80
2022/11/19 10:44:36;;;;;;;28.20;12.45;;;;;;;9.34;58.81;97635.75;4457035;32;20072;-80
2022/11/19 10:47:17;;;;;;;29.05;12.70;;;;;;;9.70;58.71;97635.03;4456913;32;20093;-80
2022/11/19 10:49:44;;;;;;;29.80;11.43;;;;;;;8.57;62.22;97645.06;4456396;32;20101;-80
2022/11/19 10:52:19;;;;;;;28.35;12.02;;;;;;;8.98;61.61;97651.91;4456852;32;20081;-80
2022/11/19 10:54:46;;;;;;;24.17;10.63;;;;;;;11.58;52.15;97660.13;4442992;32;20103;-80
2022/11/19 10:57:16;;;;;;;24.58;10.75;;;;;;;10.76;53.97;97657.47;4442492;32;20120;-80
2022/11/19 10:59:43;;;;;;;22.48;10.02;;;;;;;12.01;49.55;97660.44;4442832;32;20508;-79
2022/11/19 11:02:38;;;;;;;21.30;9.57;;;;;;;13.17;45.49;97665.00;4456444;32;20341;-80
2022/11/19 11:05:08;;;;;;;19.75;9.43;;;;;;;13.38;44.21;97657.75;4443618;32;20081;-79
2022/11/19 11:07:53;;;;;;;22.42;9.38;;;;;;;13.36;45.00;97654.41;4457562;32;20706;-80
2022/11/19 11:10:31;;;;;;;23.17;9.60;;;;;;;12.13;47.29;97652.03;4456336;32;20127;-79
2022/11/19 11:16:21;;;;;;;19.77;8.70;;;;;;;13.24;45.79;97639.63;4458248;32;20538;-79
2022/11/19 11:18:48;;;;;;;18.52;7.40;;;;;;;11.17;50.22;97631.31;4457998;32;20155;-79
2022/11/19 11:21:37;;;;;;;20.23;8.10;;;;;;;10.93;50.37;97628.22;4457819;32;20104;-79
2022/11/19 11:24:04;;;;;;;20.05;8.73;;;;;;;9.92;55.05;97620.25;4443521;32;20103;-79
2022/11/19 11:26:32;;;;;;;20.37;9.10;;;;;;;8.88;58.47;97612.03;4444279;32;20077;-79
2022/11/19 11:29:03;;;;;;;22.50;10.05;;;;;;;8.73;61.37;97607.53;4457722;32;20117;-79
2022/11/19 11:31:33;;;;;;;24.55;10.05;;;;;;;8.60;63.73;97602.06;4456544;32;20104;-79
2022/11/19 11:34:01;;;;;;;24.05;8.38;;;;;;;8.83;62.65;97603.69;4458571;32;20054;-79
2022/11/19 11:36:30;;;;;;;24.25;9.95;;;;;;;8.02;66.26;97608.72;4459135;32;20073;-79
2022/11/19 11:38:59;;;;;;;21.23;8.70;;;;;;;8.40;64.64;97595.19;4444976;32;20069;-79
2022/11/19 11:41:37;;;;;;;24.45;10.00;;;;;;;8.10;65.36;97594.66;4445760;32;20124;-79
2022/11/19 11:44:29;;;;;;;27.10;9.88;;;;;;;7.25;71.44;97595.38;4447970;32;20103;-79
2022/11/19 11:46:58;;;;;;;27.95;10.02;;;;;;;8.29;67.66;97591.34;4445099;32;20080;-79
2022/11/19 11:49:26;;;;;;;24.95;10.75;;;;;;;8.48;66.61;97592.28;4458703;32;20111;-79
2022/11/19 11:52:13;;;;;;;27.50;12.37;;;;;;;8.96;63.88;97589.38;4458242;32;20109;-79
2022/11/19 11:55:13;;;;;;;29.20;12.18;;;;;;;9.53;61.35;97587.69;4459577;32;20612;-79
2022/11/19 11:57:57;;;;;;;30.40;13.32;;;;;;;9.24;61.97;97596.72;4445016;32;20095;-79
2022/11/19 12:00:36;;;;;;;30.42;12.90;;;;;;;9.66;60.08;97605.13;4459698;32;20081;-79
2022/11/19 12:03:06;;;;;;;28.23;11.32;;;;;;;10.20;58.78;97591.38;4461044;32;20151;-80
2022/11/19 12:06:05;;;;;;;27.52;9.68;;;;;;;8.87;62.99;97596.66;4462562;32;20085;-80
2022/11/19 12:09:01;;;;;;;26.55;11.38;;;;;;;8.06;66.73;97597.41;4453971;32;20073;-80
2022/11/19 12:11:52;;;;;;;24.83;10.82;;;;;;;7.30;70.84;97608.03;4458512;32;20707;-80
2022/11/19 12:14:22;;;;;;;24.15;9.48;;;;;;;7.98;65.21;97599.47;4456466;32;20167;-80
2022/11/19 12:17:03;;;;;;;23.65;9.07;;;;;;;8.36;64.75;97587.66;4444800;32;20085;-80
2022/11/19 12:19:52;;;;;;;23.30;9.95;;;;;;;8.81;64.32;97576.34;4457737;32;20087;-80
2022/11/19 12:22:27;;;;;;;21.90;9.85;;;;;;;8.06;67.38;97571.72;4458284;32;20428;-80